Aviation Digital Data Service (ADDS)

Output produced by METARs form (2150 UTC 08 August 2020)
found at http://www.aviationweather.gov/metar/data/
 
METAR text: EGGP 082120Z 00000KT CAVOK 18/13 Q1022
Conditions at: EGGP (LIVERPOOL AIRPOR, GB) observed 2120 UTC 08 August 2020
Temperature: 18.0°C (64°F)
Dewpoint: 13.0°C (55°F) [RH = 73%]
Pressure (altimeter): 30.18 inches Hg (1022.0 mb)
Winds: calm
Visibility: 6 or more miles (10+ km)
Ceiling: ceiling and visibility are OK
Clouds: unknown
Weather: no significant weather observed at this time

METAR text: EGGP 082050Z 00000KT CAVOK 19/14 Q1022
Conditions at: EGGP (LIVERPOOL AIRPOR, GB) observed 2050 UTC 08 August 2020
Temperature: 19.0°C (66°F)
Dewpoint: 14.0°C (57°F) [RH = 73%]
Pressure (altimeter): 30.18 inches Hg (1022.0 mb)
Winds: calm
Visibility: 6 or more miles (10+ km)
Ceiling: ceiling and visibility are OK
Clouds: unknown
Weather: no significant weather observed at this time

METAR text: EGGP 082020Z 00000KT CAVOK 19/14 Q1022
Conditions at: EGGP (LIVERPOOL AIRPOR, GB) observed 2020 UTC 08 August 2020
Temperature: 19.0°C (66°F)
Dewpoint: 14.0°C (57°F) [RH = 73%]
Pressure (altimeter): 30.18 inches Hg (1022.0 mb)
Winds: calm
Visibility: 6 or more miles (10+ km)
Ceiling: ceiling and visibility are OK
Clouds: unknown
Weather: no significant weather observed at this time

METAR text: EGGP 081950Z 00000KT CAVOK 20/14 Q1022
Conditions at: EGGP (LIVERPOOL AIRPOR, GB) observed 1950 UTC 08 August 2020
Temperature: 20.0°C (68°F)
Dewpoint: 14.0°C (57°F) [RH = 68%]
Pressure (altimeter): 30.18 inches Hg (1022.0 mb)
Winds: calm
Visibility: 6 or more miles (10+ km)
Ceiling: ceiling and visibility are OK
Clouds: unknown
Weather: no significant weather observed at this time

METAR text: EGGP 081920Z 00000KT CAVOK 21/15 Q1022
Conditions at: EGGP (LIVERPOOL AIRPOR, GB) observed 1920 UTC 08 August 2020
Temperature: 21.0°C (70°F)
Dewpoint: 15.0°C (59°F) [RH = 69%]
Pressure (altimeter): 30.18 inches Hg (1022.0 mb)
Winds: calm
Visibility: 6 or more miles (10+ km)
Ceiling: ceiling and visibility are OK
Clouds: unknown
Weather: no significant weather observed at this time

METAR text: EGGP 081850Z 33004KT 280V040 CAVOK 20/15 Q1022
Conditions at: EGGP (LIVERPOOL AIRPOR, GB) observed 1850 UTC 08 August 2020
Temperature: 20.0°C (68°F)
Dewpoint: 15.0°C (59°F) [RH = 73%]
Pressure (altimeter): 30.18 inches Hg (1022.0 mb)
Winds: from the NNW (330 degrees) at 5 MPH (4 knots; 2.1 m/s)
Visibility: 6 or more miles (10+ km)
Ceiling: ceiling and visibility are OK
Clouds: unknown
Weather: no significant weather observed at this time

METAR text: EGGP 081820Z 30008KT CAVOK 20/15 Q1022
Conditions at: EGGP (LIVERPOOL AIRPOR, GB) observed 1820 UTC 08 August 2020
Temperature: 20.0°C (68°F)
Dewpoint: 15.0°C (59°F) [RH = 73%]
Pressure (altimeter): 30.18 inches Hg (1022.0 mb)
Winds: from the WNW (300 degrees) at 9 MPH (8 knots; 4.1 m/s)
Visibility: 6 or more miles (10+ km)
Ceiling: ceiling and visibility are OK
Clouds: unknown
Weather: no significant weather observed at this time

METAR text: EGGP 081750Z 30008KT CAVOK 21/15 Q1022
Conditions at: EGGP (LIVERPOOL AIRPOR, GB) observed 1750 UTC 08 August 2020
Temperature: 21.0°C (70°F)
Dewpoint: 15.0°C (59°F) [RH = 69%]
Pressure (altimeter): 30.18 inches Hg (1022.0 mb)
Winds: from the WNW (300 degrees) at 9 MPH (8 knots; 4.1 m/s)
Visibility: 6 or more miles (10+ km)
Ceiling: ceiling and visibility are OK
Clouds: unknown
Weather: no significant weather observed at this time

METAR text: EGGP 081720Z 30008KT 9999 BKN032 21/15 Q1022
Conditions at: EGGP (LIVERPOOL AIRPOR, GB) observed 1720 UTC 08 August 2020
Temperature: 21.0°C (70°F)
Dewpoint: 15.0°C (59°F) [RH = 69%]
Pressure (altimeter): 30.18 inches Hg (1022.0 mb)
Winds: from the WNW (300 degrees) at 9 MPH (8 knots; 4.1 m/s)
Visibility: 6 or more miles (10+ km)
Ceiling: 3200 feet AGL
Clouds: broken clouds at 3200 feet AGL
Weather: no significant weather observed at this time

METAR text: EGGP 081650Z 31008KT CAVOK 22/15 Q1022
Conditions at: EGGP (LIVERPOOL AIRPOR, GB) observed 1650 UTC 08 August 2020
Temperature: 22.0°C (72°F)
Dewpoint: 15.0°C (59°F) [RH = 65%]
Pressure (altimeter): 30.18 inches Hg (1022.0 mb)
Winds: from the NW (310 degrees) at 9 MPH (8 knots; 4.1 m/s)
Visibility: 6 or more miles (10+ km)
Ceiling: ceiling and visibility are OK
Clouds: unknown
Weather: no significant weather observed at this time

METAR text: EGGP 081620Z 32009KT 9999 FEW048 22/15 Q1022
Conditions at: EGGP (LIVERPOOL AIRPOR, GB) observed 1620 UTC 08 August 2020
Temperature: 22.0°C (72°F)
Dewpoint: 15.0°C (59°F) [RH = 65%]
Pressure (altimeter): 30.18 inches Hg (1022.0 mb)
Winds: from the NW (320 degrees) at 10 MPH (9 knots; 4.6 m/s)
Visibility: 6 or more miles (10+ km)
Ceiling: at least 12,000 feet AGL
Clouds: few clouds at 4800 feet AGL
Weather: no significant weather observed at this time

METAR text: EGGP 081550Z 32010KT 9999 FEW048 21/14 Q1022
Conditions at: EGGP (LIVERPOOL AIRPOR, GB) observed 1550 UTC 08 August 2020
Temperature: 21.0°C (70°F)
Dewpoint: 14.0°C (57°F) [RH = 64%]
Pressure (altimeter): 30.18 inches Hg (1022.0 mb)
Winds: from the NW (320 degrees) at 12 MPH (10 knots; 5.1 m/s)
Visibility: 6 or more miles (10+ km)
Ceiling: at least 12,000 feet AGL
Clouds: few clouds at 4800 feet AGL
Weather: no significant weather observed at this time

METAR text: EGGP 081520Z 31010KT 9999 FEW048 22/15 Q1022
Conditions at: EGGP (LIVERPOOL AIRPOR, GB) observed 1520 UTC 08 August 2020
Temperature: 22.0°C (72°F)
Dewpoint: 15.0°C (59°F) [RH = 65%]
Pressure (altimeter): 30.18 inches Hg (1022.0 mb)
Winds: from the NW (310 degrees) at 12 MPH (10 knots; 5.1 m/s)
Visibility: 6 or more miles (10+ km)
Ceiling: at least 12,000 feet AGL
Clouds: few clouds at 4800 feet AGL
Weather: no significant weather observed at this time

METAR text: EGGP 081450Z 31010KT 9999 BKN040 23/14 Q1022
Conditions at: EGGP (LIVERPOOL AIRPOR, GB) observed 1450 UTC 08 August 2020
Temperature: 23.0°C (73°F)
Dewpoint: 14.0°C (57°F) [RH = 57%]
Pressure (altimeter): 30.18 inches Hg (1022.0 mb)
Winds: from the NW (310 degrees) at 12 MPH (10 knots; 5.1 m/s)
Visibility: 6 or more miles (10+ km)
Ceiling: 4000 feet AGL
Clouds: broken clouds at 4000 feet AGL
Weather: no significant weather observed at this time

METAR text: EGGP 081420Z 30011KT 9999 BKN040 22/15 Q1022
Conditions at: EGGP (LIVERPOOL AIRPOR, GB) observed 1420 UTC 08 August 2020
Temperature: 22.0°C (72°F)
Dewpoint: 15.0°C (59°F) [RH = 65%]
Pressure (altimeter): 30.18 inches Hg (1022.0 mb)
Winds: from the WNW (300 degrees) at 13 MPH (11 knots; 5.7 m/s)
Visibility: 6 or more miles (10+ km)
Ceiling: 4000 feet AGL
Clouds: broken clouds at 4000 feet AGL
Weather: no significant weather observed at this time

METAR text: EGGP 081350Z 28011KT 9999 SCT038 22/15 Q1022
Conditions at: EGGP (LIVERPOOL AIRPOR, GB) observed 1350 UTC 08 August 2020
Temperature: 22.0°C (72°F)
Dewpoint: 15.0°C (59°F) [RH = 65%]
Pressure (altimeter): 30.18 inches Hg (1022.0 mb)
Winds: from the W (280 degrees) at 13 MPH (11 knots; 5.7 m/s)
Visibility: 6 or more miles (10+ km)
Ceiling: at least 12,000 feet AGL
Clouds: scattered clouds at 3800 feet AGL
Weather: no significant weather observed at this time

METAR text: EGGP 081320Z 29012KT 9999 SCT038 21/15 Q1022
Conditions at: EGGP (LIVERPOOL AIRPOR, GB) observed 1320 UTC 08 August 2020
Temperature: 21.0°C (70°F)
Dewpoint: 15.0°C (59°F) [RH = 69%]
Pressure (altimeter): 30.18 inches Hg (1022.0 mb)
Winds: from the WNW (290 degrees) at 14 MPH (12 knots; 6.2 m/s)
Visibility: 6 or more miles (10+ km)
Ceiling: at least 12,000 feet AGL
Clouds: scattered clouds at 3800 feet AGL
Weather: no significant weather observed at this time

METAR text: EGGP 081250Z 27013KT 9999 FEW024 22/16 Q1023
Conditions at: EGGP (LIVERPOOL AIRPOR, GB) observed 1250 UTC 08 August 2020
Temperature: 22.0°C (72°F)
Dewpoint: 16.0°C (61°F) [RH = 69%]
Pressure (altimeter): 30.21 inches Hg (1023.0 mb)
Winds: from the W (270 degrees) at 15 MPH (13 knots; 6.7 m/s)
Visibility: 6 or more miles (10+ km)
Ceiling: at least 12,000 feet AGL
Clouds: few clouds at 2400 feet AGL
Weather: no significant weather observed at this time

METAR text: EGGP 081220Z 28012KT 250V310 9999 SCT019 SCT031 22/18 Q1023
Conditions at: EGGP (LIVERPOOL AIRPOR, GB) observed 1220 UTC 08 August 2020
Temperature: 22.0°C (72°F)
Dewpoint: 18.0°C (64°F) [RH = 78%]
Pressure (altimeter): 30.21 inches Hg (1023.0 mb)
Winds: from the W (280 degrees) at 14 MPH (12 knots; 6.2 m/s)
Visibility: 6 or more miles (10+ km)
Ceiling: at least 12,000 feet AGL
Clouds: scattered clouds at 1900 feet AGL
scattered clouds at 3100 feet AGL
Weather: no significant weather observed at this time

METAR text: EGGP 081150Z 27011KT 9999 SCT019 BKN025 21/17 Q1023
Conditions at: EGGP (LIVERPOOL AIRPOR, GB) observed 1150 UTC 08 August 2020
Temperature: 21.0°C (70°F)
Dewpoint: 17.0°C (63°F) [RH = 78%]
Pressure (altimeter): 30.21 inches Hg (1023.0 mb)
Winds: from the W (270 degrees) at 13 MPH (11 knots; 5.7 m/s)
Visibility: 6 or more miles (10+ km)
Ceiling: 2500 feet AGL
Clouds: scattered clouds at 1900 feet AGL
broken clouds at 2500 feet AGL
Weather: no significant weather observed at this time

METAR text: EGGP 081120Z 26010KT 9999 SCT015 BKN021 21/18 Q1023
Conditions at: EGGP (LIVERPOOL AIRPOR, GB) observed 1120 UTC 08 August 2020
Temperature: 21.0°C (70°F)
Dewpoint: 18.0°C (64°F) [RH = 83%]
Pressure (altimeter): 30.21 inches Hg (1023.0 mb)
Winds: from the W (260 degrees) at 12 MPH (10 knots; 5.1 m/s)
Visibility: 6 or more miles (10+ km)
Ceiling: 2100 feet AGL
Clouds: scattered clouds at 1500 feet AGL
broken clouds at 2100 feet AGL
Weather: no significant weather observed at this time

METAR text: EGGP 081050Z 27008KT 9999 SCT015 BKN021 21/18 Q1023
Conditions at: EGGP (LIVERPOOL AIRPOR, GB) observed 1050 UTC 08 August 2020
Temperature: 21.0°C (70°F)
Dewpoint: 18.0°C (64°F) [RH = 83%]
Pressure (altimeter): 30.21 inches Hg (1023.0 mb)
Winds: from the W (270 degrees) at 9 MPH (8 knots; 4.1 m/s)
Visibility: 6 or more miles (10+ km)
Ceiling: 2100 feet AGL
Clouds: scattered clouds at 1500 feet AGL
broken clouds at 2100 feet AGL
Weather: no significant weather observed at this time

METAR text: EGGP 080950Z 00000KT 9999 SCT011 OVC015 20/17 Q1023
Conditions at: EGGP (LIVERPOOL AIRPOR, GB) observed 0950 UTC 08 August 2020
Temperature: 20.0°C (68°F)
Dewpoint: 17.0°C (63°F) [RH = 83%]
Pressure (altimeter): 30.21 inches Hg (1023.0 mb)
Winds: calm
Visibility: 6 or more miles (10+ km)
Ceiling: 1500 feet AGL
Clouds: scattered clouds at 1100 feet AGL
overcast cloud deck at 1500 feet AGL
Weather: no significant weather observed at this time

METAR text: EGGP 080920Z 00000KT 9999 SCT007 OVC011 19/17 Q1023
Conditions at: EGGP (LIVERPOOL AIRPOR, GB) observed 0920 UTC 08 August 2020
Temperature: 19.0°C (66°F)
Dewpoint: 17.0°C (63°F) [RH = 88%]
Pressure (altimeter): 30.21 inches Hg (1023.0 mb)
Winds: calm
Visibility: 6 or more miles (10+ km)
Ceiling: 1100 feet AGL
Clouds: scattered clouds at 700 feet AGL
overcast cloud deck at 1100 feet AGL
Weather: no significant weather observed at this time

METAR text: EGGP 080850Z 00000KT 9999 SCT005 BKN009 OVC011 18/17 Q1023
Conditions at: EGGP (LIVERPOOL AIRPOR, GB) observed 0850 UTC 08 August 2020
Temperature: 18.0°C (64°F)
Dewpoint: 17.0°C (63°F) [RH = 94%]
Pressure (altimeter): 30.21 inches Hg (1023.0 mb)
Winds: calm
Visibility: 6 or more miles (10+ km)
Ceiling: 900 feet AGL
Clouds: scattered clouds at 500 feet AGL
broken clouds at 900 feet AGL
overcast cloud deck at 1100 feet AGL
Weather: no significant weather observed at this time

METAR text: EGGP 080820Z 00000KT 9999 BKN005 OVC009 18/16 Q1023
Conditions at: EGGP (LIVERPOOL AIRPOR, GB) observed 0820 UTC 08 August 2020
Temperature: 18.0°C (64°F)
Dewpoint: 16.0°C (61°F) [RH = 88%]
Pressure (altimeter): 30.21 inches Hg (1023.0 mb)
Winds: calm
Visibility: 6 or more miles (10+ km)
Ceiling: 500 feet AGL
Clouds: broken clouds at 500 feet AGL
overcast cloud deck at 900 feet AGL
Weather: no significant weather observed at this time

METAR text: EGGP 080750Z 00000KT 8000 BKN005 OVC009 18/17 Q1023
Conditions at: EGGP (LIVERPOOL AIRPOR, GB) observed 0750 UTC 08 August 2020
Temperature: 18.0°C (64°F)
Dewpoint: 17.0°C (63°F) [RH = 94%]
Pressure (altimeter): 30.21 inches Hg (1023.0 mb)
Winds: calm
Visibility: 5 miles ( 8 km)
Ceiling: 500 feet AGL
Clouds: broken clouds at 500 feet AGL
overcast cloud deck at 900 feet AGL
Weather: no significant weather observed at this time

METAR text: EGGP 080720Z 02005KT 8000 BKN005 OVC009 17/16 Q1023
Conditions at: EGGP (LIVERPOOL AIRPOR, GB) observed 0720 UTC 08 August 2020
Temperature: 17.0°C (63°F)
Dewpoint: 16.0°C (61°F) [RH = 94%]
Pressure (altimeter): 30.21 inches Hg (1023.0 mb)
Winds: from the NNE (20 degrees) at 6 MPH (5 knots; 2.6 m/s)
Visibility: 5 miles ( 8 km)
Ceiling: 500 feet AGL
Clouds: broken clouds at 500 feet AGL
overcast cloud deck at 900 feet AGL
Weather: no significant weather observed at this time

METAR text: EGGP 080650Z VRB03KT 5000 -DZ BR BKN002 OVC004 17/17 Q1023
Conditions at: EGGP (LIVERPOOL AIRPOR, GB) observed 0650 UTC 08 August 2020
Temperature: 17.0°C (63°F)
Dewpoint: 17.0°C (63°F) [RH = 100%]
Pressure (altimeter): 30.21 inches Hg (1023.0 mb)
Winds: variable direction winds at 3 MPH (3 knots; 1.5 m/s)
Visibility: 3 miles ( 5 km)
Ceiling: 200 feet AGL
Clouds: broken clouds at 200 feet AGL
overcast cloud deck at 400 feet AGL
Weather: -DZ BR  (light drizzle, mist)

METAR text: EGGP 080620Z 03004KT 5000 -DZ BR OVC002 17/16 Q1023
Conditions at: EGGP (LIVERPOOL AIRPOR, GB) observed 0620 UTC 08 August 2020
Temperature: 17.0°C (63°F)
Dewpoint: 16.0°C (61°F) [RH = 94%]
Pressure (altimeter): 30.21 inches Hg (1023.0 mb)
Winds: from the NNE (30 degrees) at 5 MPH (4 knots; 2.1 m/s)
Visibility: 3 miles ( 5 km)
Ceiling: 200 feet AGL
Clouds: overcast cloud deck at 200 feet AGL
Weather: -DZ BR  (light drizzle, mist)

METAR text: EGGP 080550Z 35004KT 300V040 5000 -DZ BR OVC002 17/16 Q1022
Conditions at: EGGP (LIVERPOOL AIRPOR, GB) observed 0550 UTC 08 August 2020
Temperature: 17.0°C (63°F)
Dewpoint: 16.0°C (61°F) [RH = 94%]
Pressure (altimeter): 30.18 inches Hg (1022.0 mb)
Winds: from the N (350 degrees) at 5 MPH (4 knots; 2.1 m/s)
Visibility: 3 miles ( 5 km)
Ceiling: 200 feet AGL
Clouds: overcast cloud deck at 200 feet AGL
Weather: -DZ BR  (light drizzle, mist)

METAR text: EGGP 080520Z 36004KT 320V070 5000 -DZ BR OVC002 17/16 Q1022
Conditions at: EGGP (LIVERPOOL AIRPOR, GB) observed 0520 UTC 08 August 2020
Temperature: 17.0°C (63°F)
Dewpoint: 16.0°C (61°F) [RH = 94%]
Pressure (altimeter): 30.18 inches Hg (1022.0 mb)
Winds: from the N (360 degrees) at 5 MPH (4 knots; 2.1 m/s)
Visibility: 3 miles ( 5 km)
Ceiling: 200 feet AGL
Clouds: overcast cloud deck at 200 feet AGL
Weather: -DZ BR  (light drizzle, mist)

METAR text: EGGP 080450Z 33006KT 5000 -DZ BR OVC002 17/16 Q1022
Conditions at: EGGP (LIVERPOOL AIRPOR, GB) observed 0450 UTC 08 August 2020
Temperature: 17.0°C (63°F)
Dewpoint: 16.0°C (61°F) [RH = 94%]
Pressure (altimeter): 30.18 inches Hg (1022.0 mb)
Winds: from the NNW (330 degrees) at 7 MPH (6 knots; 3.1 m/s)
Visibility: 3 miles ( 5 km)
Ceiling: 200 feet AGL
Clouds: overcast cloud deck at 200 feet AGL
Weather: -DZ BR  (light drizzle, mist)

METAR text: EGGP 080420Z 33005KT 300V010 8000 OVC003 17/16 Q1022
Conditions at: EGGP (LIVERPOOL AIRPOR, GB) observed 0420 UTC 08 August 2020
Temperature: 17.0°C (63°F)
Dewpoint: 16.0°C (61°F) [RH = 94%]
Pressure (altimeter): 30.18 inches Hg (1022.0 mb)
Winds: from the NNW (330 degrees) at 6 MPH (5 knots; 2.6 m/s)
Visibility: 5 miles ( 8 km)
Ceiling: 300 feet AGL
Clouds: overcast cloud deck at 300 feet AGL
Weather: no significant weather observed at this time

METAR text: EGGP 080350Z 29008KT 9999 OVC003 17/16 Q1022
Conditions at: EGGP (LIVERPOOL AIRPOR, GB) observed 0350 UTC 08 August 2020
Temperature: 17.0°C (63°F)
Dewpoint: 16.0°C (61°F) [RH = 94%]
Pressure (altimeter): 30.18 inches Hg (1022.0 mb)
Winds: from the WNW (290 degrees) at 9 MPH (8 knots; 4.1 m/s)
Visibility: 6 or more miles (10+ km)
Ceiling: 300 feet AGL
Clouds: overcast cloud deck at 300 feet AGL
Weather: no significant weather observed at this time

METAR text: EGGP 080320Z AUTO 30008KT 9999 OVC001/// 17/16 Q1021
Conditions at: EGGP (LIVERPOOL AIRPOR, GB) observed 0320 UTC 08 August 2020
Temperature: 17.0°C (63°F)
Dewpoint: 16.0°C (61°F) [RH = 94%]
Pressure (altimeter): 30.15 inches Hg (1021.0 mb)
Winds: from the WNW (300 degrees) at 9 MPH (8 knots; 4.1 m/s)
Visibility: 6 or more miles (10+ km)
Ceiling: 100 feet AGL
Clouds: overcast cloud deck at 100 feet AGL
Weather: no significant weather observed at this time

METAR text: EGGP 080250Z AUTO 29009KT 9999 BKN001/// OVC004/// 17/16 Q1021
Conditions at: EGGP (LIVERPOOL AIRPOR, GB) observed 0250 UTC 08 August 2020
Temperature: 17.0°C (63°F)
Dewpoint: 16.0°C (61°F) [RH = 94%]
Pressure (altimeter): 30.15 inches Hg (1021.0 mb)
Winds: from the WNW (290 degrees) at 10 MPH (9 knots; 4.6 m/s)
Visibility: 6 or more miles (10+ km)
Ceiling: 100 feet AGL
Clouds: broken clouds at 100 feet AGL
overcast cloud deck at 400 feet AGL
Weather: no significant weather observed at this time

METAR text: EGGP 080220Z AUTO 29010KT 9999 BKN005/// OVC017/// 18/16 Q1021
Conditions at: EGGP (LIVERPOOL AIRPOR, GB) observed 0220 UTC 08 August 2020
Temperature: 18.0°C (64°F)
Dewpoint: 16.0°C (61°F) [RH = 88%]
Pressure (altimeter): 30.15 inches Hg (1021.0 mb)
Winds: from the WNW (290 degrees) at 12 MPH (10 knots; 5.1 m/s)
Visibility: 6 or more miles (10+ km)
Ceiling: 500 feet AGL
Clouds: broken clouds at 500 feet AGL
overcast cloud deck at 1700 feet AGL
Weather: no significant weather observed at this time

METAR text: EGGP 080150Z AUTO 32006KT 290V360 9999 OVC009/// 19/16 Q1021
Conditions at: EGGP (LIVERPOOL AIRPOR, GB) observed 0150 UTC 08 August 2020
Temperature: 19.0°C (66°F)
Dewpoint: 16.0°C (61°F) [RH = 83%]
Pressure (altimeter): 30.15 inches Hg (1021.0 mb)
Winds: from the NW (320 degrees) at 7 MPH (6 knots; 3.1 m/s)
Visibility: 6 or more miles (10+ km)
Ceiling: 900 feet AGL
Clouds: overcast cloud deck at 900 feet AGL
Weather: no significant weather observed at this time

METAR text: EGGP 080120Z AUTO 33004KT 310V010 9999 OVC010/// 19/16 Q1021
Conditions at: EGGP (LIVERPOOL AIRPOR, GB) observed 0120 UTC 08 August 2020
Temperature: 19.0°C (66°F)
Dewpoint: 16.0°C (61°F) [RH = 83%]
Pressure (altimeter): 30.15 inches Hg (1021.0 mb)
Winds: from the NNW (330 degrees) at 5 MPH (4 knots; 2.1 m/s)
Visibility: 6 or more miles (10+ km)
Ceiling: 1000 feet AGL
Clouds: overcast cloud deck at 1000 feet AGL
Weather: no significant weather observed at this time

METAR text: EGGP 080050Z 35006KT 310V020 9999 BKN011 19/16 Q1021
Conditions at: EGGP (LIVERPOOL AIRPOR, GB) observed 0050 UTC 08 August 2020
Temperature: 19.0°C (66°F)
Dewpoint: 16.0°C (61°F) [RH = 83%]
Pressure (altimeter): 30.15 inches Hg (1021.0 mb)
Winds: from the N (350 degrees) at 7 MPH (6 knots; 3.1 m/s)
Visibility: 6 or more miles (10+ km)
Ceiling: 1100 feet AGL
Clouds: broken clouds at 1100 feet AGL
Weather: no significant weather observed at this time

METAR text: EGGP 080020Z 34004KT 9999 SCT011 19/17 Q1020
Conditions at: EGGP (LIVERPOOL AIRPOR, GB) observed 0020 UTC 08 August 2020
Temperature: 19.0°C (66°F)
Dewpoint: 17.0°C (63°F) [RH = 88%]
Pressure (altimeter): 30.12 inches Hg (1020.0 mb)
Winds: from the NNW (340 degrees) at 5 MPH (4 knots; 2.1 m/s)
Visibility: 6 or more miles (10+ km)
Ceiling: at least 12,000 feet AGL
Clouds: scattered clouds at 1100 feet AGL
Weather: no significant weather observed at this time

METAR text: EGGP 072350Z 34005KT 300V010 9999 SCT021 18/16 Q1020
Conditions at: EGGP (LIVERPOOL AIRPOR, GB) observed 2350 UTC 07 August 2020
Temperature: 18.0°C (64°F)
Dewpoint: 16.0°C (61°F) [RH = 88%]
Pressure (altimeter): 30.12 inches Hg (1020.0 mb)
Winds: from the NNW (340 degrees) at 6 MPH (5 knots; 2.6 m/s)
Visibility: 6 or more miles (10+ km)
Ceiling: at least 12,000 feet AGL
Clouds: scattered clouds at 2100 feet AGL
Weather: no significant weather observed at this time

METAR text: EGGP 072320Z 33005KT 9999 FEW023 19/17 Q1020
Conditions at: EGGP (LIVERPOOL AIRPOR, GB) observed 2320 UTC 07 August 2020
Temperature: 19.0°C (66°F)
Dewpoint: 17.0°C (63°F) [RH = 88%]
Pressure (altimeter): 30.12 inches Hg (1020.0 mb)
Winds: from the NNW (330 degrees) at 6 MPH (5 knots; 2.6 m/s)
Visibility: 6 or more miles (10+ km)
Ceiling: at least 12,000 feet AGL
Clouds: few clouds at 2300 feet AGL
Weather: no significant weather observed at this time

METAR text: EGGP 072250Z 34006KT 9999 FEW026 19/17 Q1020
Conditions at: EGGP (LIVERPOOL AIRPOR, GB) observed 2250 UTC 07 August 2020
Temperature: 19.0°C (66°F)
Dewpoint: 17.0°C (63°F) [RH = 88%]
Pressure (altimeter): 30.12 inches Hg (1020.0 mb)
Winds: from the NNW (340 degrees) at 7 MPH (6 knots; 3.1 m/s)
Visibility: 6 or more miles (10+ km)
Ceiling: at least 12,000 feet AGL
Clouds: few clouds at 2600 feet AGL
Weather: no significant weather observed at this time

METAR text: EGGP 072220Z 33007KT 9999 FEW025 19/17 Q1020
Conditions at: EGGP (LIVERPOOL AIRPOR, GB) observed 2220 UTC 07 August 2020
Temperature: 19.0°C (66°F)
Dewpoint: 17.0°C (63°F) [RH = 88%]
Pressure (altimeter): 30.12 inches Hg (1020.0 mb)
Winds: from the NNW (330 degrees) at 8 MPH (7 knots; 3.6 m/s)
Visibility: 6 or more miles (10+ km)
Ceiling: at least 12,000 feet AGL
Clouds: few clouds at 2500 feet AGL
Weather: no significant weather observed at this time

METAR text: EGGP 072150Z 36005KT 310V030 9999 FEW024 19/17 Q1019
Conditions at: EGGP (LIVERPOOL AIRPOR, GB) observed 2150 UTC 07 August 2020
Temperature: 19.0°C (66°F)
Dewpoint: 17.0°C (63°F) [RH = 88%]
Pressure (altimeter): 30.09 inches Hg (1019.0 mb)
Winds: from the N (360 degrees) at 6 MPH (5 knots; 2.6 m/s)
Visibility: 6 or more miles (10+ km)
Ceiling: at least 12,000 feet AGL
Clouds: few clouds at 2400 feet AGL
Weather: no significant weather observed at this time

METAR text: EGGP 072120Z 36006KT CAVOK 20/17 Q1019
Conditions at: EGGP (LIVERPOOL AIRPOR, GB) observed 2120 UTC 07 August 2020
Temperature: 20.0°C (68°F)
Dewpoint: 17.0°C (63°F) [RH = 83%]
Pressure (altimeter): 30.09 inches Hg (1019.0 mb)
Winds: from the N (360 degrees) at 7 MPH (6 knots; 3.1 m/s)
Visibility: 6 or more miles (10+ km)
Ceiling: ceiling and visibility are OK
Clouds: unknown
Weather: no significant weather observed at this time

METAR text: EGGP 072050Z 36005KT 340V080 CAVOK 20/17 Q1019
Conditions at: EGGP (LIVERPOOL AIRPOR, GB) observed 2050 UTC 07 August 2020
Temperature: 20.0°C (68°F)
Dewpoint: 17.0°C (63°F) [RH = 83%]
Pressure (altimeter): 30.09 inches Hg (1019.0 mb)
Winds: from the N (360 degrees) at 6 MPH (5 knots; 2.6 m/s)
Visibility: 6 or more miles (10+ km)
Ceiling: ceiling and visibility are OK
Clouds: unknown
Weather: no significant weather observed at this time

METAR text: EGGP 072020Z 34004KT 9999 FEW040 21/17 Q1019
Conditions at: EGGP (LIVERPOOL AIRPOR, GB) observed 2020 UTC 07 August 2020
Temperature: 21.0°C (70°F)
Dewpoint: 17.0°C (63°F) [RH = 78%]
Pressure (altimeter): 30.09 inches Hg (1019.0 mb)
Winds: from the NNW (340 degrees) at 5 MPH (4 knots; 2.1 m/s)
Visibility: 6 or more miles (10+ km)
Ceiling: at least 12,000 feet AGL
Clouds: few clouds at 4000 feet AGL
Weather: no significant weather observed at this time

METAR text: EGGP 071950Z 34005KT 9999 FEW040 21/17 Q1018
Conditions at: EGGP (LIVERPOOL AIRPOR, GB) observed 1950 UTC 07 August 2020
Temperature: 21.0°C (70°F)
Dewpoint: 17.0°C (63°F) [RH = 78%]
Pressure (altimeter): 30.06 inches Hg (1018.0 mb)
Winds: from the NNW (340 degrees) at 6 MPH (5 knots; 2.6 m/s)
Visibility: 6 or more miles (10+ km)
Ceiling: at least 12,000 feet AGL
Clouds: few clouds at 4000 feet AGL
Weather: no significant weather observed at this time

METAR text: EGGP 071920Z 34005KT 9999 FEW040 22/17 Q1018
Conditions at: EGGP (LIVERPOOL AIRPOR, GB) observed 1920 UTC 07 August 2020
Temperature: 22.0°C (72°F)
Dewpoint: 17.0°C (63°F) [RH = 73%]
Pressure (altimeter): 30.06 inches Hg (1018.0 mb)
Winds: from the NNW (340 degrees) at 6 MPH (5 knots; 2.6 m/s)
Visibility: 6 or more miles (10+ km)
Ceiling: at least 12,000 feet AGL
Clouds: few clouds at 4000 feet AGL
Weather: no significant weather observed at this time

METAR text: EGGP 071850Z 35006KT 310V020 9999 FEW040 22/18 Q1018
Conditions at: EGGP (LIVERPOOL AIRPOR, GB) observed 1850 UTC 07 August 2020
Temperature: 22.0°C (72°F)
Dewpoint: 18.0°C (64°F) [RH = 78%]
Pressure (altimeter): 30.06 inches Hg (1018.0 mb)
Winds: from the N (350 degrees) at 7 MPH (6 knots; 3.1 m/s)
Visibility: 6 or more miles (10+ km)
Ceiling: at least 12,000 feet AGL
Clouds: few clouds at 4000 feet AGL
Weather: no significant weather observed at this time

METAR text: EGGP 071820Z 35007KT 320V020 9999 FEW040 23/17 Q1017
Conditions at: EGGP (LIVERPOOL AIRPOR, GB) observed 1820 UTC 07 August 2020
Temperature: 23.0°C (73°F)
Dewpoint: 17.0°C (63°F) [RH = 69%]
Pressure (altimeter): 30.03 inches Hg (1017.0 mb)
Winds: from the N (350 degrees) at 8 MPH (7 knots; 3.6 m/s)
Visibility: 6 or more miles (10+ km)
Ceiling: at least 12,000 feet AGL
Clouds: few clouds at 4000 feet AGL
Weather: no significant weather observed at this time

METAR text: EGGP 071750Z 33006KT 9999 FEW040 23/17 Q1017
Conditions at: EGGP (LIVERPOOL AIRPOR, GB) observed 1750 UTC 07 August 2020
Temperature: 23.0°C (73°F)
Dewpoint: 17.0°C (63°F) [RH = 69%]
Pressure (altimeter): 30.03 inches Hg (1017.0 mb)
Winds: from the NNW (330 degrees) at 7 MPH (6 knots; 3.1 m/s)
Visibility: 6 or more miles (10+ km)
Ceiling: at least 12,000 feet AGL
Clouds: few clouds at 4000 feet AGL
Weather: no significant weather observed at this time

METAR text: EGGP 071720Z 33006KT 300V010 9999 FEW040 24/17 Q1017
Conditions at: EGGP (LIVERPOOL AIRPOR, GB) observed 1720 UTC 07 August 2020
Temperature: 24.0°C (75°F)
Dewpoint: 17.0°C (63°F) [RH = 65%]
Pressure (altimeter): 30.03 inches Hg (1017.0 mb)
Winds: from the NNW (330 degrees) at 7 MPH (6 knots; 3.1 m/s)
Visibility: 6 or more miles (10+ km)
Ceiling: at least 12,000 feet AGL
Clouds: few clouds at 4000 feet AGL
Weather: no significant weather observed at this time

METAR text: EGGP 071650Z 34007KT 9999 FEW040 24/18 Q1017
Conditions at: EGGP (LIVERPOOL AIRPOR, GB) observed 1650 UTC 07 August 2020
Temperature: 24.0°C (75°F)
Dewpoint: 18.0°C (64°F) [RH = 69%]
Pressure (altimeter): 30.03 inches Hg (1017.0 mb)
Winds: from the NNW (340 degrees) at 8 MPH (7 knots; 3.6 m/s)
Visibility: 6 or more miles (10+ km)
Ceiling: at least 12,000 feet AGL
Clouds: few clouds at 4000 feet AGL
Weather: no significant weather observed at this time

METAR text: EGGP 071620Z 34008KT 9999 FEW040 24/18 Q1017
Conditions at: EGGP (LIVERPOOL AIRPOR, GB) observed 1620 UTC 07 August 2020
Temperature: 24.0°C (75°F)
Dewpoint: 18.0°C (64°F) [RH = 69%]
Pressure (altimeter): 30.03 inches Hg (1017.0 mb)
Winds: from the NNW (340 degrees) at 9 MPH (8 knots; 4.1 m/s)
Visibility: 6 or more miles (10+ km)
Ceiling: at least 12,000 feet AGL
Clouds: few clouds at 4000 feet AGL
Weather: no significant weather observed at this time

METAR text: EGGP 071550Z 33009KT 9999 FEW040 23/18 Q1017
Conditions at: EGGP (LIVERPOOL AIRPOR, GB) observed 1550 UTC 07 August 2020
Temperature: 23.0°C (73°F)
Dewpoint: 18.0°C (64°F) [RH = 73%]
Pressure (altimeter): 30.03 inches Hg (1017.0 mb)
Winds: from the NNW (330 degrees) at 10 MPH (9 knots; 4.6 m/s)
Visibility: 6 or more miles (10+ km)
Ceiling: at least 12,000 feet AGL
Clouds: few clouds at 4000 feet AGL
Weather: no significant weather observed at this time

METAR text: EGGP 071520Z 32010KT 9999 FEW037 23/17 Q1017
Conditions at: EGGP (LIVERPOOL AIRPOR, GB) observed 1520 UTC 07 August 2020
Temperature: 23.0°C (73°F)
Dewpoint: 17.0°C (63°F) [RH = 69%]
Pressure (altimeter): 30.03 inches Hg (1017.0 mb)
Winds: from the NW (320 degrees) at 12 MPH (10 knots; 5.1 m/s)
Visibility: 6 or more miles (10+ km)
Ceiling: at least 12,000 feet AGL
Clouds: few clouds at 3700 feet AGL
Weather: no significant weather observed at this time

METAR text: EGGP 071450Z 29007KT 9999 SCT030 BKN038 24/19 Q1017
Conditions at: EGGP (LIVERPOOL AIRPOR, GB) observed 1450 UTC 07 August 2020
Temperature: 24.0°C (75°F)
Dewpoint: 19.0°C (66°F) [RH = 74%]
Pressure (altimeter): 30.03 inches Hg (1017.0 mb)
Winds: from the WNW (290 degrees) at 8 MPH (7 knots; 3.6 m/s)
Visibility: 6 or more miles (10+ km)
Ceiling: 3800 feet AGL
Clouds: scattered clouds at 3000 feet AGL
broken clouds at 3800 feet AGL
Weather: no significant weather observed at this time

METAR text: EGGP 071420Z 23006KT 180V270 9999 SCT030 BKN038 25/19 Q1017
Conditions at: EGGP (LIVERPOOL AIRPOR, GB) observed 1420 UTC 07 August 2020
Temperature: 25.0°C (77°F)
Dewpoint: 19.0°C (66°F) [RH = 69%]
Pressure (altimeter): 30.03 inches Hg (1017.0 mb)
Winds: from the SW (230 degrees) at 7 MPH (6 knots; 3.1 m/s)
Visibility: 6 or more miles (10+ km)
Ceiling: 3800 feet AGL
Clouds: scattered clouds at 3000 feet AGL
broken clouds at 3800 feet AGL
Weather: no significant weather observed at this time

METAR text: EGGP 071350Z 19006KT 150V230 9999 SCT030 BKN038 25/18 Q1017
Conditions at: EGGP (LIVERPOOL AIRPOR, GB) observed 1350 UTC 07 August 2020
Temperature: 25.0°C (77°F)
Dewpoint: 18.0°C (64°F) [RH = 65%]
Pressure (altimeter): 30.03 inches Hg (1017.0 mb)
Winds: from the S (190 degrees) at 7 MPH (6 knots; 3.1 m/s)
Visibility: 6 or more miles (10+ km)
Ceiling: 3800 feet AGL
Clouds: scattered clouds at 3000 feet AGL
broken clouds at 3800 feet AGL
Weather: no significant weather observed at this time

METAR text: EGGP 071320Z 16004KT 100V210 9999 SCT030 BKN038 25/19 Q1017
Conditions at: EGGP (LIVERPOOL AIRPOR, GB) observed 1320 UTC 07 August 2020
Temperature: 25.0°C (77°F)
Dewpoint: 19.0°C (66°F) [RH = 69%]
Pressure (altimeter): 30.03 inches Hg (1017.0 mb)
Winds: from the SSE (160 degrees) at 5 MPH (4 knots; 2.1 m/s)
Visibility: 6 or more miles (10+ km)
Ceiling: 3800 feet AGL
Clouds: scattered clouds at 3000 feet AGL
broken clouds at 3800 feet AGL
Weather: no significant weather observed at this time

METAR text: EGGP 071250Z 17004KT 090V230 9999 FEW022 SCT030 25/18 Q1017
Conditions at: EGGP (LIVERPOOL AIRPOR, GB) observed 1250 UTC 07 August 2020
Temperature: 25.0°C (77°F)
Dewpoint: 18.0°C (64°F) [RH = 65%]
Pressure (altimeter): 30.03 inches Hg (1017.0 mb)
Winds: from the S (170 degrees) at 5 MPH (4 knots; 2.1 m/s)
Visibility: 6 or more miles (10+ km)
Ceiling: at least 12,000 feet AGL
Clouds: few clouds at 2200 feet AGL
scattered clouds at 3000 feet AGL
Weather: no significant weather observed at this time

METAR text: EGGP 071220Z VRB02KT 9999 FEW022 SCT030 24/18 Q1017
Conditions at: EGGP (LIVERPOOL AIRPOR, GB) observed 1220 UTC 07 August 2020
Temperature: 24.0°C (75°F)
Dewpoint: 18.0°C (64°F) [RH = 69%]
Pressure (altimeter): 30.03 inches Hg (1017.0 mb)
Winds: variable direction winds at 2 MPH (2 knots; 1.0 m/s)
Visibility: 6 or more miles (10+ km)
Ceiling: at least 12,000 feet AGL
Clouds: few clouds at 2200 feet AGL
scattered clouds at 3000 feet AGL
Weather: no significant weather observed at this time

METAR text: EGGP 071150Z 17005KT 120V200 9999 FEW022 SCT030 23/18 Q1017
Conditions at: EGGP (LIVERPOOL AIRPOR, GB) observed 1150 UTC 07 August 2020
Temperature: 23.0°C (73°F)
Dewpoint: 18.0°C (64°F) [RH = 73%]
Pressure (altimeter): 30.03 inches Hg (1017.0 mb)
Winds: from the S (170 degrees) at 6 MPH (5 knots; 2.6 m/s)
Visibility: 6 or more miles (10+ km)
Ceiling: at least 12,000 feet AGL
Clouds: few clouds at 2200 feet AGL
scattered clouds at 3000 feet AGL
Weather: no significant weather observed at this time

METAR text: EGGP 071120Z 18008KT 120V220 9999 FEW022 SCT027 BKN034 23/18 Q1018
Conditions at: EGGP (LIVERPOOL AIRPOR, GB) observed 1120 UTC 07 August 2020
Temperature: 23.0°C (73°F)
Dewpoint: 18.0°C (64°F) [RH = 73%]
Pressure (altimeter): 30.06 inches Hg (1018.0 mb)
Winds: from the S (180 degrees) at 9 MPH (8 knots; 4.1 m/s)
Visibility: 6 or more miles (10+ km)
Ceiling: 3400 feet AGL
Clouds: few clouds at 2200 feet AGL
scattered clouds at 2700 feet AGL
broken clouds at 3400 feet AGL
Weather: no significant weather observed at this time

METAR text: EGGP 071050Z 18008KT 9999 FEW022 SCT027 BKN034 24/18 Q1018
Conditions at: EGGP (LIVERPOOL AIRPOR, GB) observed 1050 UTC 07 August 2020
Temperature: 24.0°C (75°F)
Dewpoint: 18.0°C (64°F) [RH = 69%]
Pressure (altimeter): 30.06 inches Hg (1018.0 mb)
Winds: from the S (180 degrees) at 9 MPH (8 knots; 4.1 m/s)
Visibility: 6 or more miles (10+ km)
Ceiling: 3400 feet AGL
Clouds: few clouds at 2200 feet AGL
scattered clouds at 2700 feet AGL
broken clouds at 3400 feet AGL
Weather: no significant weather observed at this time

METAR text: EGGP 071020Z 17008KT 130V210 9999 BKN023 24/18 Q1018
Conditions at: EGGP (LIVERPOOL AIRPOR, GB) observed 1020 UTC 07 August 2020
Temperature: 24.0°C (75°F)
Dewpoint: 18.0°C (64°F) [RH = 69%]
Pressure (altimeter): 30.06 inches Hg (1018.0 mb)
Winds: from the S (170 degrees) at 9 MPH (8 knots; 4.1 m/s)
Visibility: 6 or more miles (10+ km)
Ceiling: 2300 feet AGL
Clouds: broken clouds at 2300 feet AGL
Weather: no significant weather observed at this time

Forecast for: EGGP (LIVERPOOL AIRPOR, GB)
Text: TAF EGGP 081657Z 0818/0918 31010KT 9999 FEW040
Forecast period: 1800 UTC 08 August 2020 to 1800 UTC 09 August 2020
Forecast type: FROM: standard forecast or significant change
Winds: from the NW (310 degrees) at 12 MPH (10 knots; 5.1 m/s)
Visibility: 6 or more miles (10+ km)
Ceiling: at least 12,000 feet AGL
Clouds: few clouds at 4000 feet AGL
Weather: no significant weather forecast for this period
Text: BECMG 0818/0821 08007KT
Forecast period: 1800 UTC 08 August 2020 to 1800 UTC 09 August 2020
Forecast type: BECOMING: Conditions expected to become as follows by 2100 UTC 08 August 2020
Winds: from the E (80 degrees) at 8 MPH (7 knots; 3.6 m/s)
Visibility: 6 or more miles (10+ km)
Ceiling: at least 12,000 feet AGL
Clouds: few clouds at 4000 feet AGL
Weather: no significant weather forecast for this period
Text: PROB30
Forecast period: 0900 to 1200 UTC 09 August 2020
Forecast type: TEMPORARY: The following changes expected for less than half the time period
Visibility: missing
Ceiling: 1400 feet AGL
Clouds: broken clouds at 1400 feet AGL
Weather: no significant weather forecast for this period